Time,TemperatureF,DewpointF,PressureIn,WindDirection,WindDirectionDegrees,WindSpeedMPH,WindSpeedGustMPH,Humidity,HourlyPrecipIn,Conditions,Clouds,dailyrainin,SoftwareType,DateUTC
2013-03-30 00:00:00,79.0,72.0,30.13,SSW,210,14.0,-999.0,80,-99.99,,,-99.99,,2013-03-30 00:00:00,
2013-03-30 00:11:00,79.0,72.0,30.13,SSW,210,14.0,-999.0,80,-99.99,,,-99.99,,2013-03-30 00:11:00,
2013-03-30 00:21:00,79.0,72.0,30.13,SSW,210,14.0,-999.0,80,-99.99,,,-99.99,,2013-03-30 00:21:00,
2013-03-30 00:31:00,79.0,72.0,30.13,SSW,210,14.0,-999.0,80,-99.99,,,-99.99,,2013-03-30 00:31:00,
2013-03-30 00:41:00,79.0,72.0,30.13,SSW,210,14.0,-999.0,80,-99.99,,,-99.99,,2013-03-30 00:41:00,
2013-03-30 00:51:00,79.0,72.0,30.13,SSW,210,14.0,-999.0,80,-99.99,,,-99.99,,2013-03-30 00:51:00,
2013-03-30 01:00:00,79.0,72.0,30.14,SSW,210,14.0,-999.0,79,-99.99,,,-99.99,,2013-03-30 01:00:00,
2013-03-30 01:11:00,79.0,72.0,30.14,SSW,210,14.0,-999.0,79,-99.99,,,-99.99,,2013-03-30 01:11:00,
2013-03-30 01:21:00,79.0,72.0,30.14,SSW,210,14.0,-999.0,79,-99.99,,,-99.99,,2013-03-30 01:21:00,
2013-03-30 01:31:00,79.0,72.0,30.14,SSW,210,14.0,-999.0,79,-99.99,,,-99.99,,2013-03-30 01:31:00,
2013-03-30 01:52:00,79.0,72.0,30.14,SSW,210,14.0,-999.0,79,-99.99,,,-99.99,,2013-03-30 01:52:00,
2013-03-30 02:11:00,78.0,71.0,30.14,SSW,210,14.0,-999.0,78,-99.99,,,-99.99,,2013-03-30 02:11:00,
2013-03-30 02:21:00,78.0,71.0,30.14,SSW,210,14.0,-999.0,78,-99.99,,,-99.99,,2013-03-30 02:21:00,
2013-03-30 02:32:00,78.0,71.0,30.14,SSW,210,14.0,-999.0,78,-99.99,,,-99.99,,2013-03-30 02:32:00,
2013-03-30 02:41:00,78.0,71.0,30.14,SSW,210,14.0,-999.0,78,-99.99,,,-99.99,,2013-03-30 02:41:00,
2013-03-30 02:52:00,78.0,71.0,30.14,SSW,210,14.0,-999.0,78,-99.99,,,-99.99,,2013-03-30 02:52:00,
2013-03-30 03:00:00,78.0,71.0,30.14,SW,220,14.0,-999.0,79,-99.99,,,-99.99,,2013-03-30 03:00:00,
2013-03-30 03:11:00,78.0,71.0,30.14,SW,220,14.0,-999.0,79,-99.99,,,-99.99,,2013-03-30 03:11:00,
2013-03-30 03:21:00,78.0,71.0,30.14,SW,220,14.0,-999.0,79,-99.99,,,-99.99,,2013-03-30 03:21:00,
2013-03-30 03:32:00,78.0,71.0,30.14,SW,220,14.0,-999.0,79,-99.99,,,-99.99,,2013-03-30 03:32:00,
2013-03-30 03:43:00,78.0,71.0,30.14,SW,220,14.0,-999.0,79,-99.99,,,-99.99,,2013-03-30 03:43:00,
2013-03-30 03:52:00,78.0,71.0,30.14,SW,220,14.0,-999.0,79,-99.99,,,-99.99,,2013-03-30 03:52:00,
2013-03-30 04:00:00,78.0,71.0,30.13,SW,220,13.0,-999.0,77,-99.99,,,-99.99,,2013-03-30 04:00:00,
2013-03-30 04:12:00,78.0,71.0,30.13,SW,220,13.0,-999.0,77,-99.99,,,-99.99,,2013-03-30 04:12:00,
2013-03-30 04:22:00,78.0,71.0,30.13,SW,220,13.0,-999.0,77,-99.99,,,-99.99,,2013-03-30 04:22:00,
2013-03-30 04:32:00,78.0,71.0,30.13,SW,220,13.0,-999.0,77,-99.99,,,-99.99,,2013-03-30 04:32:00,
2013-03-30 04:42:00,78.0,71.0,30.13,SW,220,13.0,-999.0,77,-99.99,,,-99.99,,2013-03-30 04:42:00,
2013-03-30 04:52:00,78.0,71.0,30.13,SW,220,13.0,-999.0,77,-99.99,,,-99.99,,2013-03-30 04:52:00,
2013-03-30 05:00:00,78.0,70.0,30.12,SW,220,15.0,-999.0,78,-99.99,,,-99.99,,2013-03-30 05:00:00,
2013-03-30 05:12:00,78.0,70.0,30.12,SW,220,15.0,-999.0,78,-99.99,,,-99.99,,2013-03-30 05:12:00,
2013-03-30 05:22:00,78.0,70.0,30.12,SW,220,15.0,-999.0,78,-99.99,,,-99.99,,2013-03-30 05:22:00,
2013-03-30 05:32:00,78.0,70.0,30.12,SW,220,15.0,-999.0,78,-99.99,,,-99.99,,2013-03-30 05:32:00,
2013-03-30 05:42:00,78.0,70.0,30.12,SW,220,15.0,-999.0,78,-99.99,,,-99.99,,2013-03-30 05:42:00,
2013-03-30 05:51:00,78.0,70.0,30.12,SW,220,15.0,-999.0,78,-99.99,,,-99.99,,2013-03-30 05:51:00,
2013-03-30 06:00:00,78.0,70.0,30.11,SW,230,14.0,-999.0,78,-99.99,,,-99.99,,2013-03-30 06:00:00,
2013-03-30 06:11:00,78.0,70.0,30.11,SW,230,14.0,-999.0,78,-99.99,,,-99.99,,2013-03-30 06:11:00,
2013-03-30 06:21:00,78.0,70.0,30.11,SW,230,14.0,-999.0,78,-99.99,,,-99.99,,2013-03-30 06:21:00,
2013-03-30 06:31:00,78.0,70.0,30.11,SW,230,14.0,-999.0,78,-99.99,,,-99.99,,2013-03-30 06:31:00,
2013-03-30 06:41:00,78.0,70.0,30.11,SW,230,14.0,-999.0,78,-99.99,,,-99.99,,2013-03-30 06:41:00,
2013-03-30 06:51:00,78.0,70.0,30.11,SW,230,14.0,-999.0,78,-99.99,,,-99.99,,2013-03-30 06:51:00,
2013-03-30 07:00:00,78.0,70.0,30.11,SW,220,13.0,-999.0,77,-99.99,,,-99.99,,2013-03-30 07:00:00,
2013-03-30 07:11:00,78.0,70.0,30.11,SW,220,13.0,-999.0,77,-99.99,,,-99.99,,2013-03-30 07:11:00,
2013-03-30 07:21:00,78.0,70.0,30.11,SW,220,13.0,-999.0,77,-99.99,,,-99.99,,2013-03-30 07:21:00,
2013-03-30 07:31:00,78.0,70.0,30.11,SW,220,13.0,-999.0,77,-99.99,,,-99.99,,2013-03-30 07:31:00,
2013-03-30 07:41:00,78.0,70.0,30.11,SW,220,13.0,-999.0,77,-99.99,,,-99.99,,2013-03-30 07:41:00,
2013-03-30 07:52:00,78.0,70.0,30.11,SW,220,13.0,-999.0,77,-99.99,,,-99.99,,2013-03-30 07:52:00,
2013-03-30 08:21:00,77.0,70.0,30.12,SW,230,10.0,-999.0,79,-99.99,,,-99.99,,2013-03-30 08:21:00,
2013-03-30 08:31:00,77.0,70.0,30.12,SW,230,10.0,-999.0,79,-99.99,,,-99.99,,2013-03-30 08:31:00,
2013-03-30 08:42:00,77.0,70.0,30.12,SW,230,10.0,-999.0,79,-99.99,,,-99.99,,2013-03-30 08:42:00,
2013-03-30 08:51:00,77.0,70.0,30.12,SW,230,10.0,-999.0,79,-99.99,,,-99.99,,2013-03-30 08:51:00,
2013-03-30 09:00:00,78.0,70.0,30.14,SW,230,10.0,-999.0,77,-99.99,,,-99.99,,2013-03-30 09:00:00,
2013-03-30 09:11:00,78.0,70.0,30.14,SW,230,10.0,-999.0,77,-99.99,,,-99.99,,2013-03-30 09:11:00,
2013-03-30 09:21:00,78.0,70.0,30.14,SW,230,10.0,-999.0,77,-99.99,,,-99.99,,2013-03-30 09:21:00,
2013-03-30 09:32:00,78.0,70.0,30.14,SW,230,10.0,-999.0,77,-99.99,,,-99.99,,2013-03-30 09:32:00,
2013-03-30 09:42:00,78.0,70.0,30.14,SW,230,10.0,-999.0,77,-99.99,,,-99.99,,2013-03-30 09:42:00,
2013-03-30 20:00:00,80.0,71.0,30.13,West,260,13.0,-999.0,75,-99.99,,,-99.99,,2013-03-30 20:00:00,
2013-03-30 20:11:00,80.0,71.0,30.13,West,260,13.0,-999.0,75,-99.99,,,-99.99,,2013-03-30 20:11:00,
2013-03-30 20:21:00,80.0,71.0,30.13,West,260,13.0,-999.0,75,-99.99,,,-99.99,,2013-03-30 20:21:00,
2013-03-30 20:32:00,80.0,71.0,30.13,West,260,13.0,-999.0,75,-99.99,,,-99.99,,2013-03-30 20:32:00,
2013-03-30 20:42:00,80.0,71.0,30.13,West,260,13.0,-999.0,75,-99.99,,,-99.99,,2013-03-30 20:42:00,
2013-03-30 20:52:00,80.0,71.0,30.13,West,260,13.0,-999.0,75,-99.99,,,-99.99,,2013-03-30 20:52:00,
2013-03-30 21:00:00,79.0,72.0,30.14,West,270,9.0,-999.0,80,-99.99,,,-99.99,,2013-03-30 21:00:00,
2013-03-30 21:21:00,79.0,72.0,30.14,West,270,9.0,-999.0,80,-99.99,,,-99.99,,2013-03-30 21:21:00,
2013-03-30 21:32:00,79.0,72.0,30.14,West,270,9.0,-999.0,80,-99.99,,,-99.99,,2013-03-30 21:32:00,
2013-03-30 21:42:00,79.0,72.0,30.14,West,270,9.0,-999.0,80,-99.99,,,-99.99,,2013-03-30 21:42:00,
2013-03-30 21:52:00,79.0,72.0,30.14,West,270,9.0,-999.0,80,-99.99,,,-99.99,,2013-03-30 21:52:00,
2013-03-30 22:00:00,79.0,71.0,30.15,West,280,15.0,-999.0,78,-99.99,,,-99.99,,2013-03-30 22:00:00,
2013-03-30 22:23:00,79.0,71.0,30.15,West,280,15.0,-999.0,78,-99.99,,,-99.99,,2013-03-30 22:23:00,
2013-03-30 22:32:00,79.0,71.0,30.15,West,280,15.0,-999.0,78,-99.99,,,-99.99,,2013-03-30 22:32:00,
2013-03-30 22:42:00,79.0,71.0,30.15,West,280,15.0,-999.0,78,-99.99,,,-99.99,,2013-03-30 22:42:00,
2013-03-30 22:52:00,79.0,71.0,30.15,West,280,15.0,-999.0,78,-99.99,,,-99.99,,2013-03-30 22:52:00,
2013-03-30 23:00:00,79.0,72.0,30.17,WNW,290,14.0,-999.0,80,-99.99,,,-99.99,,2013-03-30 23:00:00,
2013-03-30 23:12:00,79.0,72.0,30.17,WNW,290,14.0,-999.0,80,-99.99,,,-99.99,,2013-03-30 23:12:00,
2013-03-30 23:22:00,79.0,72.0,30.17,WNW,290,14.0,-999.0,80,-99.99,,,-99.99,,2013-03-30 23:22:00,
2013-03-30 23:41:00,79.0,72.0,30.17,WNW,290,14.0,-999.0,80,-99.99,,,-99.99,,2013-03-30 23:41:00,
2013-03-30 23:52:00,79.0,72.0,30.17,WNW,290,14.0,-999.0,80,-99.99,,,-99.99,,2013-03-30 23:52:00,